createdAt,value
2023-01-11T00:00:04.514Z,100.00
2023-01-11T00:05:41.577Z,100.00
2023-01-11T00:11:11.935Z,100.00
2023-01-11T00:16:34.333Z,100.00
2023-01-11T00:21:56.882Z,100.00
2023-01-11T00:27:22.446Z,100.00
2023-01-11T00:32:45.137Z,100.00
2023-01-11T00:38:33.705Z,100.00
2023-01-11T00:44:21.060Z,100.00
2023-01-11T00:49:46.046Z,100.00
2023-01-11T00:55:08.765Z,100.00
2023-01-11T01:00:40.728Z,100.00
2023-01-11T01:06:03.088Z,100.00
2023-01-11T01:11:25.704Z,100.00
2023-01-11T01:16:48.567Z,100.00
2023-01-11T01:22:10.351Z,100.00
2023-01-11T01:27:32.500Z,100.00
2023-01-11T01:32:54.196Z,100.00
2023-01-11T01:38:17.044Z,100.00
2023-01-11T01:44:23.523Z,100.00
2023-01-11T01:49:46.445Z,100.00
2023-01-11T01:55:13.582Z,100.00
2023-01-11T02:00:35.641Z,100.00
2023-01-11T02:06:00.099Z,100.00
2023-01-11T02:11:32.913Z,100.00
2023-01-11T02:17:00.362Z,100.00
2023-01-11T02:22:40.476Z,100.00
2023-01-11T02:28:26.362Z,100.00
2023-01-11T02:34:06.575Z,100.00
2023-01-11T02:39:44.621Z,100.00
2023-01-11T02:46:00.081Z,100.00
2023-01-11T02:51:40.975Z,100.00
2023-01-11T02:57:10.512Z,100.00
2023-01-11T03:02:34.605Z,100.00
2023-01-11T03:08:11.368Z,100.00
2023-01-11T03:13:51.962Z,100.00
2023-01-11T03:19:47.162Z,100.00
2023-01-11T03:25:25.408Z,100.00
2023-01-11T03:31:02.161Z,100.00
2023-01-11T03:36:33.513Z,100.00
2023-01-11T03:41:59.152Z,100.00
2023-01-11T03:47:26.575Z,100.00
2023-01-11T03:52:48.753Z,100.00
2023-01-11T03:58:11.298Z,100.00
2023-01-11T04:03:33.545Z,100.00
2023-01-11T04:09:02.470Z,100.00
2023-01-11T04:14:39.623Z,100.00
2023-01-11T04:20:06.807Z,100.00
2023-01-11T04:25:37.204Z,100.00
2023-01-11T04:31:26.129Z,100.00
2023-01-11T04:36:56.400Z,100.00
2023-01-11T04:42:24.203Z,100.00
2023-01-11T04:48:09.327Z,100.00
2023-01-11T04:53:42.218Z,100.00
2023-01-11T04:59:22.500Z,100.00
2023-01-11T05:05:05.309Z,100.00
2023-01-11T05:10:30.321Z,100.00
2023-01-11T05:15:52.731Z,100.00
2023-01-11T05:21:19.521Z,100.00
2023-01-11T05:26:43.691Z,100.00
2023-01-11T05:32:08.433Z,100.00
2023-01-11T05:37:30.944Z,100.00
2023-01-11T05:42:53.084Z,100.00
2023-01-11T05:48:15.573Z,100.00
2023-01-11T05:53:37.717Z,100.00
2023-01-11T05:59:04.575Z,100.00
2023-01-11T06:04:28.045Z,100.00
2023-01-11T06:09:49.957Z,100.00
2023-01-11T06:15:12.473Z,100.00
2023-01-11T06:20:35.035Z,100.00
2023-01-11T06:25:57.685Z,100.00
2023-01-11T06:31:20.962Z,100.00
2023-01-11T06:36:43.295Z,100.00
2023-01-11T06:42:08.087Z,100.00
2023-01-11T06:47:30.273Z,100.00
2023-01-11T06:52:57.000Z,100.00
2023-01-11T06:58:18.847Z,100.00
2023-01-11T07:03:42.289Z,100.00
2023-01-11T07:09:15.619Z,100.00
2023-01-11T07:14:42.126Z,100.00
2023-01-11T07:20:23.292Z,100.00
2023-01-11T07:26:04.071Z,100.00
2023-01-11T07:31:42.808Z,99.08
2023-01-11T07:37:28.527Z,98.72
2023-01-11T07:43:25.336Z,97.42
2023-01-11T07:48:50.583Z,97.19
2023-01-11T07:54:16.219Z,97.47
2023-01-11T07:59:46.623Z,97.76
2023-01-11T08:05:21.889Z,97.29
2023-01-11T08:11:13.726Z,96.89
2023-01-11T08:16:44.954Z,97.91
2023-01-11T08:22:19.785Z,98.58
2023-01-11T08:28:01.953Z,98.64
2023-01-11T08:33:36.365Z,96.97
2023-01-11T08:39:16.304Z,97.42
2023-01-11T08:44:46.345Z,95.28
2023-01-11T08:50:18.810Z,95.67
2023-01-11T08:56:04.742Z,96.59
2023-01-11T09:01:41.605Z,97.50
2023-01-11T09:07:07.722Z,98.17
2023-01-11T09:12:29.795Z,96.86
2023-01-11T09:17:53.409Z,95.88
2023-01-11T09:23:15.465Z,95.07
2023-01-11T09:28:37.474Z,95.03
2023-01-11T09:33:59.615Z,94.52
2023-01-11T09:39:24.963Z,93.27
2023-01-11T09:45:05.975Z,92.48
2023-01-11T09:50:33.514Z,93.99
2023-01-11T09:56:00.086Z,94.99
2023-01-11T10:01:38.855Z,93.73
2023-01-11T10:07:17.785Z,95.30
2023-01-11T10:26:00.286Z,92.90
2023-01-11T10:31:51.278Z,96.56
2023-01-11T10:37:44.763Z,97.19
2023-01-11T10:43:17.608Z,100.00
2023-01-11T10:48:45.866Z,100.00
2023-01-11T11:01:04.739Z,100.00
2023-01-11T11:07:03.612Z,100.00
2023-01-11T11:12:31.684Z,100.00
2023-01-11T11:17:55.231Z,100.00
2023-01-11T11:23:26.019Z,100.00
2023-01-11T11:29:09.202Z,100.00
2023-01-11T11:34:31.504Z,100.00
2023-01-11T11:39:54.705Z,100.00
2023-01-11T11:45:17.908Z,100.00
2023-01-11T11:50:45.229Z,100.00
2023-01-11T11:56:22.341Z,100.00
2023-01-11T12:01:47.797Z,100.00
2023-01-11T12:07:31.521Z,100.00
2023-01-11T12:13:04.721Z,100.00
2023-01-11T12:18:37.008Z,100.00
2023-01-11T12:24:39.678Z,100.00
2023-01-11T12:30:22.208Z,100.00
2023-01-11T12:36:24.262Z,100.00
2023-01-11T12:42:20.205Z,100.00
2023-01-11T12:48:34.765Z,100.00
2023-01-11T12:54:30.804Z,100.00
2023-01-11T13:00:17.829Z,100.00
2023-01-11T13:12:17.156Z,100.00
2023-01-11T13:18:14.695Z,100.00
2023-01-11T13:23:53.827Z,100.00
2023-01-11T13:29:28.282Z,100.00
2023-01-11T13:34:56.294Z,100.00
2023-01-11T13:40:34.629Z,100.00
2023-01-11T13:46:06.528Z,100.00
2023-01-11T13:51:38.341Z,100.00
2023-01-11T13:57:07.796Z,100.00
2023-01-11T14:02:43.177Z,100.00
2023-01-11T14:08:04.719Z,100.00
2023-01-11T14:14:05.762Z,100.00
2023-01-11T14:20:04.816Z,100.00
2023-01-11T14:25:45.402Z,100.00
2023-01-11T14:31:32.294Z,100.00
2023-01-11T14:37:18.671Z,100.00
2023-01-11T14:43:13.532Z,100.00
2023-01-11T14:48:49.142Z,100.00
2023-01-11T14:54:34.802Z,100.00
2023-01-11T14:59:56.692Z,100.00
2023-01-11T15:05:33.388Z,100.00
2023-01-11T15:11:05.847Z,100.00
2023-01-11T15:17:14.983Z,100.00
2023-01-11T15:22:37.891Z,100.00
2023-01-11T15:28:04.217Z,100.00
2023-01-11T15:33:26.106Z,98.78
2023-01-11T15:39:03.618Z,99.43
2023-01-11T15:44:49.684Z,100.00
2023-01-11T15:50:49.374Z,98.64
2023-01-11T15:56:29.803Z,97.79
2023-01-11T16:01:54.273Z,94.53
2023-01-11T16:07:50.065Z,98.38
2023-01-11T16:13:20.927Z,100.00
2023-01-11T16:18:53.019Z,100.00
2023-01-11T16:24:21.581Z,100.00
2023-01-11T16:29:50.813Z,100.00
2023-01-11T16:35:25.667Z,100.00
2023-01-11T16:40:53.826Z,100.00
2023-01-11T16:46:53.963Z,100.00
2023-01-11T16:52:28.059Z,100.00
2023-01-11T16:57:54.318Z,100.00
2023-01-11T17:03:46.180Z,100.00
2023-01-11T17:09:16.329Z,100.00
2023-01-11T17:15:06.451Z,100.00
2023-01-11T17:20:31.079Z,100.00
2023-01-11T17:25:58.302Z,100.00
2023-01-11T17:31:40.498Z,100.00
2023-01-11T17:37:11.125Z,100.00
2023-01-11T17:42:54.631Z,100.00
2023-01-11T17:48:22.027Z,100.00
2023-01-11T17:53:52.805Z,100.00
2023-01-11T17:59:17.406Z,100.00
2023-01-11T18:04:42.285Z,100.00
2023-01-11T18:10:30.489Z,100.00
2023-01-11T18:15:52.844Z,100.00
2023-01-11T18:21:26.695Z,100.00
2023-01-11T18:26:50.860Z,100.00
2023-01-11T18:32:14.831Z,100.00
2023-01-11T18:37:38.113Z,100.00
2023-01-11T18:43:00.111Z,100.00
2023-01-11T18:48:22.404Z,100.00
2023-01-11T18:53:44.487Z,100.00
2023-01-11T18:59:06.463Z,100.00
2023-01-11T19:04:28.382Z,100.00
2023-01-11T19:09:51.099Z,100.00
2023-01-11T19:15:17.321Z,100.00
2023-01-11T19:20:43.610Z,100.00
2023-01-11T19:26:26.252Z,100.00
2023-01-11T19:32:02.485Z,100.00
2023-01-11T19:37:37.453Z,100.00
2023-01-11T19:43:07.715Z,100.00
2023-01-11T19:48:35.635Z,100.00
2023-01-11T19:53:59.841Z,100.00
2023-01-11T19:59:32.433Z,100.00
2023-01-11T20:04:57.668Z,100.00
2023-01-11T20:10:24.782Z,100.00
2023-01-11T20:15:53.329Z,100.00
2023-01-11T20:21:16.132Z,100.00
2023-01-11T20:26:41.389Z,100.00
2023-01-11T20:32:27.865Z,100.00
2023-01-11T20:37:52.474Z,100.00
2023-01-11T20:43:30.569Z,100.00
2023-01-11T20:48:59.680Z,100.00
2023-01-11T20:54:30.344Z,100.00
2023-01-11T21:00:00.174Z,100.00
2023-01-11T21:06:13.607Z,100.00
2023-01-11T21:16:59.314Z,100.00
2023-01-11T21:22:21.662Z,100.00
2023-01-11T21:27:43.550Z,100.00
2023-01-11T21:33:05.823Z,100.00
2023-01-11T21:38:27.491Z,100.00
2023-01-11T21:43:53.003Z,100.00
2023-01-11T21:49:15.964Z,100.00
2023-01-11T21:54:38.299Z,100.00
2023-01-11T22:00:00.532Z,100.00
2023-01-11T22:05:24.279Z,100.00
2023-01-11T22:11:00.259Z,100.00
2023-01-11T22:16:22.480Z,100.00
2023-01-11T22:21:45.320Z,100.00
2023-01-11T22:27:07.822Z,100.00
2023-01-11T22:32:32.993Z,100.00
2023-01-11T22:37:54.721Z,100.00
2023-01-11T22:43:16.599Z,100.00
2023-01-11T22:48:38.914Z,100.00
2023-01-11T22:54:00.780Z,100.00
2023-01-11T22:59:22.471Z,100.00
2023-01-11T23:04:44.548Z,100.00
2023-01-11T23:10:09.062Z,100.00
2023-01-11T23:15:31.400Z,100.00
2023-01-11T23:20:53.746Z,100.00
2023-01-11T23:26:18.722Z,100.00
2023-01-11T23:31:40.645Z,100.00
2023-01-11T23:37:02.434Z,100.00
2023-01-11T23:42:27.573Z,100.00
2023-01-11T23:47:50.083Z,100.00
2023-01-11T23:53:12.013Z,100.00
2023-01-11T23:58:34.041Z,100.00
